createdAt,value
2022-09-02T00:04:34.776Z,100729.44
2022-09-02T00:09:28.666Z,100717.03
2022-09-02T00:14:41.785Z,100714.16
2022-09-02T00:19:35.641Z,100678.47
2022-09-02T00:24:29.310Z,100695.84
2022-09-02T00:29:23.797Z,100718.31
2022-09-02T00:34:17.939Z,100705.03
2022-09-02T00:39:11.516Z,100695.44
2022-09-02T00:44:08.885Z,100688.78
2022-09-02T00:49:09.091Z,100709.78
2022-09-02T00:54:02.103Z,100690.31
2022-09-02T00:58:56.533Z,100729.38
2022-09-02T01:03:51.027Z,100689.16
2022-09-02T01:08:50.772Z,100712.81
2022-09-02T01:13:44.469Z,100709.31
2022-09-02T01:18:39.769Z,100720.13
2022-09-02T01:23:34.947Z,100708.94
2022-09-02T01:28:29.337Z,100706.53
2022-09-02T01:33:25.227Z,100689.19
2022-09-02T01:38:25.263Z,100689.19
2022-09-02T01:43:22.963Z,100705.03
2022-09-02T01:48:21.569Z,100708.59
2022-09-02T01:53:18.007Z,100716.84
2022-09-02T01:58:12.062Z,100674.81
2022-09-02T02:03:09.382Z,100683.56
2022-09-02T02:08:03.188Z,100699.84
2022-09-02T02:12:57.975Z,100696.91
2022-09-02T02:17:51.444Z,100676.28
2022-09-02T02:22:45.121Z,100662.69
2022-09-02T02:27:37.925Z,100677.50
2022-09-02T02:32:33.659Z,100643.22
2022-09-02T02:37:28.932Z,100656.69
2022-09-02T02:42:22.363Z,100664.84
2022-09-02T02:47:16.969Z,100659.28
2022-09-02T02:52:11.894Z,100673.94
2022-09-02T02:57:07.651Z,100633.00
2022-09-02T03:02:01.491Z,100682.50
2022-09-02T03:06:58.517Z,100670.53
2022-09-02T03:11:53.752Z,100678.88
2022-09-02T03:16:47.128Z,100648.25
2022-09-02T03:21:41.013Z,100646.31
2022-09-02T03:26:35.789Z,100653.34
2022-09-02T03:31:29.761Z,100671.13
2022-09-02T03:36:31.415Z,100671.84
2022-09-02T03:41:26.167Z,100651.38
2022-09-02T03:46:21.965Z,100673.09
2022-09-02T03:51:16.442Z,100674.34
2022-09-02T03:56:15.951Z,100693.78
2022-09-02T04:01:14.721Z,100694.75
2022-09-02T04:06:15.797Z,100697.59
2022-09-02T04:11:15.478Z,100668.81
2022-09-02T04:16:17.735Z,100683.91
2022-09-02T04:21:11.255Z,100676.19
2022-09-02T04:26:11.654Z,100642.22
2022-09-02T04:31:10.450Z,100640.84
2022-09-02T04:36:09.688Z,100670.91
2022-09-02T04:41:14.162Z,100690.94
2022-09-02T04:46:10.003Z,100678.06
2022-09-02T04:51:17.124Z,100688.19
2022-09-02T04:56:14.677Z,100696.69
2022-09-02T05:01:16.713Z,100724.44
2022-09-02T05:06:12.536Z,100708.47
2022-09-02T05:11:21.556Z,100719.63
2022-09-02T05:16:21.217Z,100705.84
2022-09-02T05:21:15.767Z,100728.03
2022-09-02T05:26:11.383Z,100672.91
2022-09-02T05:31:09.091Z,100729.69
2022-09-02T05:36:04.634Z,100727.19
2022-09-02T05:40:58.025Z,100748.06
2022-09-02T05:45:52.584Z,100734.56
2022-09-02T05:50:46.649Z,100732.53
2022-09-02T05:55:45.601Z,100741.28
2022-09-02T06:00:41.053Z,100737.88
2022-09-02T06:05:34.996Z,100730.13
2022-09-02T06:10:43.221Z,100739.03
2022-09-02T06:15:47.061Z,100719.75
2022-09-02T06:20:47.735Z,100737.22
2022-09-02T06:25:44.239Z,100724.16
2022-09-02T06:30:42.658Z,100730.16
2022-09-02T06:35:43.256Z,100727.69
2022-09-02T06:40:47.033Z,100731.63
2022-09-02T06:45:41.553Z,100736.53
2022-09-02T06:50:58.850Z,100721.72
2022-09-02T06:55:53.720Z,100762.22
2022-09-02T07:00:48.321Z,100722.25
2022-09-02T07:05:41.963Z,100740.19
2022-09-02T07:10:39.957Z,100741.97
2022-09-02T07:15:36.531Z,100748.06
2022-09-02T07:20:29.686Z,100728.25
2022-09-02T07:25:26.052Z,100732.94
2022-09-02T07:30:20.372Z,100733.91
2022-09-02T07:35:19.388Z,100716.34
2022-09-02T07:40:13.400Z,100709.44
2022-09-02T07:45:09.910Z,100724.78
2022-09-02T07:50:16.968Z,100714.28
2022-09-02T07:55:17.045Z,100716.78
2022-09-02T08:00:14.330Z,100732.06
2022-09-02T08:05:09.109Z,100706.69
2022-09-02T08:10:02.454Z,100732.88
2022-09-02T08:14:58.912Z,100726.09
2022-09-02T08:19:52.346Z,100721.31
2022-09-02T08:24:46.077Z,100709.59
2022-09-02T08:29:40.887Z,100735.16
2022-09-02T08:34:35.444Z,100716.69
2022-09-02T08:39:29.275Z,100728.94
2022-09-02T08:44:24.217Z,100717.75
2022-09-02T08:49:26.983Z,100740.31
2022-09-02T08:54:33.368Z,100735.50
2022-09-02T08:59:31.314Z,100746.63
2022-09-02T09:04:24.211Z,100741.28
2022-09-02T09:09:23.027Z,100727.66
2022-09-02T09:14:22.111Z,100742.06
2022-09-02T09:19:35.047Z,100734.03
2022-09-02T09:24:48.590Z,100716.31
2022-09-02T09:29:42.720Z,100725.03
2022-09-02T09:35:12.726Z,100714.72
2022-09-02T09:40:26.835Z,100715.59
2022-09-02T09:45:22.881Z,100697.25
2022-09-02T09:50:20.476Z,100700.84
2022-09-02T09:55:25.092Z,100712.78
2022-09-02T10:00:35.660Z,100715.75
2022-09-02T10:05:34.141Z,100703.22
2022-09-02T10:10:29.939Z,100702.53
2022-09-02T10:15:46.133Z,100702.53
2022-09-02T10:21:15.323Z,100686.75
2022-09-02T10:26:41.616Z,100686.59
2022-09-02T10:32:13.264Z,100700.84
2022-09-02T10:37:11.864Z,100698.00
2022-09-02T10:42:33.944Z,100673.09
2022-09-02T10:47:58.872Z,100677.59
2022-09-02T10:53:20.609Z,100657.72
2022-09-02T10:58:25.271Z,100642.59
2022-09-02T11:03:25.828Z,100636.16
2022-09-02T11:08:57.811Z,100648.00
2022-09-02T11:14:17.274Z,100643.06
2022-09-02T11:19:16.015Z,100645.50
2022-09-02T11:24:26.304Z,100618.53
2022-09-02T11:29:39.563Z,100644.09
2022-09-02T11:34:41.091Z,100639.00
2022-09-02T11:40:30.303Z,100649.44
2022-09-02T11:46:02.711Z,100641.84
2022-09-02T11:51:04.856Z,100631.28
2022-09-02T11:56:37.305Z,100621.31
2022-09-02T12:01:53.688Z,100609.59
2022-09-02T12:07:10.574Z,100618.75
2022-09-02T12:12:07.676Z,100609.16
2022-09-02T12:17:09.817Z,100601.00
2022-09-02T12:22:17.301Z,100606.81
2022-09-02T12:27:20.033Z,100594.66
2022-09-02T12:32:13.123Z,100594.56
2022-09-02T12:37:07.319Z,100585.41
2022-09-02T12:42:10.958Z,100591.75
2022-09-02T12:47:27.164Z,100575.22
2022-09-02T12:52:36.479Z,100573.56
2022-09-02T12:57:42.452Z,100572.75
2022-09-02T13:02:54.038Z,100570.75
2022-09-02T13:08:07.387Z,100562.16
2022-09-02T13:13:37.466Z,100560.91
2022-09-02T13:18:45.469Z,100555.56
2022-09-02T13:24:00.429Z,100540.34
2022-09-02T13:29:18.300Z,100526.84
2022-09-02T13:34:49.893Z,100521.50
2022-09-02T13:39:44.312Z,100536.56
2022-09-02T13:44:38.363Z,100523.19
2022-09-02T13:49:40.125Z,100518.13
2022-09-02T13:54:38.515Z,100522.91
2022-09-02T13:59:38.843Z,100522.97
2022-09-02T14:04:34.187Z,100511.28
2022-09-02T14:09:32.817Z,100511.53
2022-09-02T14:14:27.539Z,100514.34
2022-09-02T14:19:20.925Z,100503.63
2022-09-02T14:24:16.840Z,100494.91
2022-09-02T14:29:16.124Z,100469.69
2022-09-02T14:34:34.774Z,100477.75
2022-09-02T14:39:28.612Z,100485.03
2022-09-02T14:44:34.817Z,100453.63
2022-09-02T14:49:40.275Z,100451.66
2022-09-02T14:54:37.558Z,100441.81
2022-09-02T14:59:31.574Z,100454.38
2022-09-02T15:04:25.704Z,100445.47
2022-09-02T15:09:19.677Z,100453.50
2022-09-02T15:14:13.269Z,100458.59
2022-09-02T15:19:06.783Z,100424.75
2022-09-02T15:23:59.573Z,100462.25
2022-09-02T15:28:53.236Z,100470.44
2022-09-02T15:33:52.760Z,100472.94
2022-09-02T15:38:48.181Z,100466.19
2022-09-02T15:43:42.330Z,100478.19
2022-09-02T15:48:37.976Z,100480.00
2022-09-02T15:53:32.219Z,100469.28
2022-09-02T15:58:26.779Z,100479.03
2022-09-02T16:03:19.763Z,100459.44
2022-09-02T16:08:14.761Z,100465.78
2022-09-02T16:13:08.410Z,100445.88
2022-09-02T16:18:02.289Z,100414.91
2022-09-02T16:22:56.184Z,100427.56
2022-09-02T16:27:52.948Z,100438.81
2022-09-02T16:32:48.117Z,100444.19
2022-09-02T16:37:41.376Z,100466.34
2022-09-02T16:42:38.387Z,100455.47
2022-09-02T16:47:32.284Z,100461.00
2022-09-02T16:52:26.365Z,100449.25
2022-09-02T16:57:19.931Z,100475.91
2022-09-02T17:02:14.673Z,100466.19
2022-09-02T17:07:08.152Z,100464.22
2022-09-02T17:12:01.570Z,100488.16
2022-09-02T17:16:55.520Z,100480.13
2022-09-02T17:21:54.270Z,100467.06
2022-09-02T17:26:51.481Z,100459.44
2022-09-02T17:31:53.363Z,100459.56
2022-09-02T17:36:46.840Z,100458.75
2022-09-02T17:41:55.638Z,100503.13
2022-09-02T17:46:48.388Z,100452.34
2022-09-02T17:51:43.768Z,100478.31
2022-09-02T17:56:46.956Z,100479.16
2022-09-02T18:02:02.447Z,100496.34
2022-09-02T18:07:04.361Z,100491.81
2022-09-02T18:11:58.548Z,100462.78
2022-09-02T18:17:30.904Z,100483.38
2022-09-02T18:22:56.819Z,100484.09
2022-09-02T18:28:13.172Z,100482.53
2022-09-02T18:33:41.165Z,100492.97
2022-09-02T18:38:39.065Z,100489.31
2022-09-02T18:43:44.381Z,100492.13
2022-09-02T18:48:40.597Z,100464.91
2022-09-02T18:53:37.980Z,100495.63
2022-09-02T18:58:54.412Z,100519.72
2022-09-02T19:03:48.492Z,100520.84
2022-09-02T19:08:44.926Z,100531.13
2022-09-02T19:13:46.904Z,100530.72
2022-09-02T19:18:40.653Z,100542.41
2022-09-02T19:23:35.231Z,100507.03
2022-09-02T19:28:29.850Z,100545.94
2022-09-02T19:33:22.829Z,100530.16
2022-09-02T19:38:19.293Z,100550.56
2022-09-02T19:43:16.861Z,100531.84
2022-09-02T19:48:14.116Z,100553.25
2022-09-02T19:53:08.603Z,100580.59
2022-09-02T19:58:02.814Z,100597.47
2022-09-02T20:02:56.982Z,100563.41
2022-09-02T20:07:51.382Z,100566.66
2022-09-02T20:12:45.494Z,100552.41
2022-09-02T20:17:39.083Z,100536.28
2022-09-02T20:22:33.570Z,100544.03
2022-09-02T20:27:36.158Z,100553.00
2022-09-02T20:32:55.253Z,100566.78
2022-09-02T20:37:55.241Z,100587.91
2022-09-02T20:43:06.706Z,100577.91
2022-09-02T20:48:40.421Z,100564.50
2022-09-02T20:53:35.575Z,100563.13
2022-09-02T20:58:55.031Z,100513.97
2022-09-02T21:04:07.482Z,100559.38
2022-09-02T21:09:08.788Z,100537.72
2022-09-02T21:14:12.473Z,100541.13
2022-09-02T21:19:30.133Z,100542.97
2022-09-02T21:24:29.242Z,100545.66
2022-09-02T21:29:36.824Z,100526.78
2022-09-02T21:35:04.563Z,100522.13
2022-09-02T21:40:07.574Z,100513.94
2022-09-02T21:45:27.416Z,100522.53
2022-09-02T21:51:00.628Z,100526.91
2022-09-02T21:56:33.025Z,100529.47
2022-09-02T22:01:43.507Z,100543.69
2022-09-02T22:06:44.057Z,100547.06
2022-09-02T22:12:14.758Z,100540.59
2022-09-02T22:17:27.097Z,100563.69
2022-09-02T22:22:43.701Z,100572.44
2022-09-02T22:27:48.089Z,100573.28
2022-09-02T22:32:46.719Z,100576.09
2022-09-02T22:37:53.239Z,100585.09
2022-09-02T22:42:53.524Z,100577.66
2022-09-02T22:48:12.050Z,100574.66
2022-09-02T22:53:07.604Z,100574.53
2022-09-02T22:58:57.531Z,100574.44
2022-09-02T23:04:30.713Z,100576.25
2022-09-02T23:09:28.267Z,100572.03
2022-09-02T23:14:31.384Z,100579.63
2022-09-02T23:19:54.072Z,100567.94
2022-09-02T23:25:19.480Z,100549.06
2022-09-02T23:30:15.581Z,100560.75
2022-09-02T23:35:34.750Z,100571.31
2022-09-02T23:40:33.903Z,100571.44
2022-09-02T23:45:32.949Z,100571.19
2022-09-02T23:50:46.231Z,100580.91
2022-09-02T23:56:19.069Z,100569.22
